sensor_id;sensor_type;location;lat;lon;timestamp;noise_LAeq;noise_LA_min;noise_LA_max;noise_LA01;noise_LA95
74260;Laerm;62630;55.874;37.516;2023-02-15T00:00:23;57.38;46.09;82.09;;
74260;Laerm;62630;55.874;37.516;2023-02-15T00:02:49;52.23;44.76;72.59;;
74260;Laerm;62630;55.874;37.516;2023-02-15T00:05:14;49.59;45.68;60.11;;
74260;Laerm;62630;55.874;37.516;2023-02-15T00:07:40;52.56;45.52;72.40;;
74260;Laerm;62630;55.874;37.516;2023-02-15T00:10:06;54.33;46.34;74.15;;
74260;Laerm;62630;55.874;37.516;2023-02-15T00:12:32;52.17;46.18;65.59;;
74260;Laerm;62630;55.874;37.516;2023-02-15T00:14:58;53.94;46.41;63.24;;
74260;Laerm;62630;55.874;37.516;2023-02-15T00:17:23;55.30;45.74;70.20;;
74260;Laerm;62630;55.874;37.516;2023-02-15T00:19:49;55.71;45.71;80.13;;
74260;Laerm;62630;55.874;37.516;2023-02-15T00:22:14;61.71;46.85;84.09;;
74260;Laerm;62630;55.874;37.516;2023-02-15T00:24:40;52.62;45.07;65.93;;
74260;Laerm;62630;55.874;37.516;2023-02-15T00:27:05;50.68;45.20;67.02;;
74260;Laerm;62630;55.874;37.516;2023-02-15T00:29:31;49.89;45.23;65.43;;
74260;Laerm;62630;55.874;37.516;2023-02-15T00:31:56;55.23;47.15;71.34;;
74260;Laerm;62630;55.874;37.516;2023-02-15T00:34:24;57.47;46.39;76.70;;
74260;Laerm;62630;55.874;37.516;2023-02-15T00:36:51;50.16;44.52;68.41;;
74260;Laerm;62630;55.874;37.516;2023-02-15T00:39:17;50.73;45.40;65.06;;
74260;Laerm;62630;55.874;37.516;2023-02-15T00:41:45;54.79;45.38;69.35;;
74260;Laerm;62630;55.874;37.516;2023-02-15T00:44:14;52.83;46.03;71.52;;
74260;Laerm;62630;55.874;37.516;2023-02-15T00:46:41;51.66;44.80;62.40;;
74260;Laerm;62630;55.874;37.516;2023-02-15T00:49:07;50.30;46.07;64.06;;
74260;Laerm;62630;55.874;37.516;2023-02-15T00:51:33;53.28;45.77;66.67;;
74260;Laerm;62630;55.874;37.516;2023-02-15T00:53:59;51.10;46.28;63.61;;
74260;Laerm;62630;55.874;37.516;2023-02-15T00:56:26;52.01;45.87;68.29;;
74260;Laerm;62630;55.874;37.516;2023-02-15T00:58:53;50.96;45.61;66.96;;
74260;Laerm;62630;55.874;37.516;2023-02-15T01:01:20;56.58;46.61;72.63;;
74260;Laerm;62630;55.874;37.516;2023-02-15T01:03:46;55.20;46.18;76.82;;
74260;Laerm;62630;55.874;37.516;2023-02-15T01:06:12;50.95;45.96;69.65;;
74260;Laerm;62630;55.874;37.516;2023-02-15T01:08:38;51.94;45.91;64.73;;
74260;Laerm;62630;55.874;37.516;2023-02-15T01:11:12;52.62;46.23;63.53;;
74260;Laerm;62630;55.874;37.516;2023-02-15T01:13:41;50.43;46.10;64.20;;
74260;Laerm;62630;55.874;37.516;2023-02-15T01:16:07;56.25;46.90;72.79;;
74260;Laerm;62630;55.874;37.516;2023-02-15T01:18:33;51.53;45.22;65.50;;
74260;Laerm;62630;55.874;37.516;2023-02-15T01:20:59;52.42;46.16;71.17;;
74260;Laerm;62630;55.874;37.516;2023-02-15T01:23:25;56.76;47.21;76.75;;
74260;Laerm;62630;55.874;37.516;2023-02-15T01:25:50;56.67;46.23;73.33;;
74260;Laerm;62630;55.874;37.516;2023-02-15T01:28:16;51.69;45.68;70.30;;
74260;Laerm;62630;55.874;37.516;2023-02-15T01:30:42;51.25;45.24;73.30;;
74260;Laerm;62630;55.874;37.516;2023-02-15T01:33:10;51.29;46.15;66.83;;
74260;Laerm;62630;55.874;37.516;2023-02-15T01:35:43;53.61;46.67;64.84;;
74260;Laerm;62630;55.874;37.516;2023-02-15T01:38:09;49.55;45.06;55.13;;
74260;Laerm;62630;55.874;37.516;2023-02-15T01:40:37;50.28;45.46;68.10;;
74260;Laerm;62630;55.874;37.516;2023-02-15T01:43:09;54.18;44.83;74.94;;
74260;Laerm;62630;55.874;37.516;2023-02-15T01:45:36;64.61;47.33;79.93;;
74260;Laerm;62630;55.874;37.516;2023-02-15T01:50:33;54.53;45.31;66.86;;
74260;Laerm;62630;55.874;37.516;2023-02-15T01:53:15;52.00;45.35;66.22;;
74260;Laerm;62630;55.874;37.516;2023-02-15T01:56:09;54.18;45.50;72.60;;
74260;Laerm;62630;55.874;37.516;2023-02-15T01:58:36;54.71;46.48;67.84;;
74260;Laerm;62630;55.874;37.516;2023-02-15T02:01:04;56.72;45.82;69.42;;
74260;Laerm;62630;55.874;37.516;2023-02-15T02:04:10;59.75;47.78;69.82;;
74260;Laerm;62630;55.874;37.516;2023-02-15T02:06:37;55.34;47.18;72.92;;
74260;Laerm;62630;55.874;37.516;2023-02-15T02:09:03;52.77;45.80;74.18;;
74260;Laerm;62630;55.874;37.516;2023-02-15T02:11:33;51.24;45.73;67.15;;
74260;Laerm;62630;55.874;37.516;2023-02-15T02:14:00;59.45;46.29;75.25;;
74260;Laerm;62630;55.874;37.516;2023-02-15T02:17:07;50.40;45.38;68.26;;
74260;Laerm;62630;55.874;37.516;2023-02-15T02:25:23;64.95;48.81;84.44;;
74260;Laerm;62630;55.874;37.516;2023-02-15T02:33:49;55.75;47.79;80.56;;
74260;Laerm;62630;55.874;37.516;2023-02-15T02:42:13;55.98;47.89;67.69;;
74260;Laerm;62630;55.874;37.516;2023-02-15T02:44:52;57.17;47.03;70.94;;
74260;Laerm;62630;55.874;37.516;2023-02-15T02:47:21;54.95;46.01;65.00;;
74260;Laerm;62630;55.874;37.516;2023-02-15T02:49:52;55.49;46.54;74.08;;
74260;Laerm;62630;55.874;37.516;2023-02-15T02:55:02;57.68;47.80;77.68;;
74260;Laerm;62630;55.874;37.516;2023-02-15T02:57:29;54.25;47.87;70.35;;
74260;Laerm;62630;55.874;37.516;2023-02-15T02:59:59;54.27;47.74;68.77;;
74260;Laerm;62630;55.874;37.516;2023-02-15T03:02:32;60.77;50.06;74.59;;
74260;Laerm;62630;55.874;37.516;2023-02-15T03:05:04;58.02;49.64;74.18;;
74260;Laerm;62630;55.874;37.516;2023-02-15T03:07:34;54.85;48.58;66.18;;
74260;Laerm;62630;55.874;37.516;2023-02-15T03:10:03;62.58;49.73;83.77;;
74260;Laerm;62630;55.874;37.516;2023-02-15T03:12:37;59.17;49.45;69.69;;
74260;Laerm;62630;55.874;37.516;2023-02-15T03:17:32;57.95;49.74;71.60;;
74260;Laerm;62630;55.874;37.516;2023-02-15T03:20:03;58.55;50.78;73.68;;
74260;Laerm;62630;55.874;37.516;2023-02-15T03:22:35;55.59;49.45;64.43;;
74260;Laerm;62630;55.874;37.516;2023-02-15T03:27:48;60.02;49.61;74.28;;
74260;Laerm;62630;55.874;37.516;2023-02-15T03:30:15;71.87;50.55;88.11;;
74260;Laerm;62630;55.874;37.516;2023-02-15T03:32:45;55.01;48.86;65.72;;
74260;Laerm;62630;55.874;37.516;2023-02-15T03:35:14;63.34;50.19;79.40;;
74260;Laerm;62630;55.874;37.516;2023-02-15T03:37:52;58.16;49.99;70.90;;
74260;Laerm;62630;55.874;37.516;2023-02-15T03:43:23;59.68;50.00;74.00;;
74260;Laerm;62630;55.874;37.516;2023-02-15T03:46:01;65.50;51.51;84.33;;
74260;Laerm;62630;55.874;37.516;2023-02-15T03:48:37;62.85;51.68;78.23;;
74260;Laerm;62630;55.874;37.516;2023-02-15T03:51:10;59.86;50.59;73.72;;
74260;Laerm;62630;55.874;37.516;2023-02-15T03:54:13;59.63;50.08;70.68;;
74260;Laerm;62630;55.874;37.516;2023-02-15T03:57:01;64.40;49.81;77.42;;
74260;Laerm;62630;55.874;37.516;2023-02-15T03:59:45;59.20;51.11;76.43;;
74260;Laerm;62630;55.874;37.516;2023-02-15T04:02:37;61.06;53.34;68.23;;
74260;Laerm;62630;55.874;37.516;2023-02-15T04:05:04;60.25;52.42;71.08;;
74260;Laerm;62630;55.874;37.516;2023-02-15T04:07:30;59.40;51.55;70.14;;
74260;Laerm;62630;55.874;37.516;2023-02-15T04:09:55;61.15;53.38;71.52;;
74260;Laerm;62630;55.874;37.516;2023-02-15T04:12:40;65.65;53.08;79.28;;
74260;Laerm;62630;55.874;37.516;2023-02-15T04:15:06;63.93;54.46;77.23;;
74260;Laerm;62630;55.874;37.516;2023-02-15T04:17:50;61.00;52.86;70.17;;
74260;Laerm;62630;55.874;37.516;2023-02-15T04:20:15;60.63;51.92;73.39;;
74260;Laerm;62630;55.874;37.516;2023-02-15T04:22:59;60.19;52.09;72.59;;
74260;Laerm;62630;55.874;37.516;2023-02-15T04:25:43;59.62;53.11;68.27;;
74260;Laerm;62630;55.874;37.516;2023-02-15T04:28:12;61.80;53.51;78.17;;
74260;Laerm;62630;55.874;37.516;2023-02-15T04:30:38;59.90;53.55;72.85;;
74260;Laerm;62630;55.874;37.516;2023-02-15T04:33:03;60.41;52.88;70.59;;
74260;Laerm;62630;55.874;37.516;2023-02-15T04:35:35;65.26;55.07;81.82;;
74260;Laerm;62630;55.874;37.516;2023-02-15T04:38:03;60.34;51.13;70.89;;
74260;Laerm;62630;55.874;37.516;2023-02-15T04:40:29;64.78;53.73;87.51;;
74260;Laerm;62630;55.874;37.516;2023-02-15T04:42:57;60.99;54.12;71.82;;
74260;Laerm;62630;55.874;37.516;2023-02-15T04:45:23;61.44;54.26;74.80;;
74260;Laerm;62630;55.874;37.516;2023-02-15T04:47:51;61.00;54.86;71.61;;
74260;Laerm;62630;55.874;37.516;2023-02-15T04:50:17;61.11;53.31;70.29;;
74260;Laerm;62630;55.874;37.516;2023-02-15T04:52:43;60.33;52.55;74.56;;
74260;Laerm;62630;55.874;37.516;2023-02-15T04:55:11;64.26;52.53;78.15;;
74260;Laerm;62630;55.874;37.516;2023-02-15T04:57:37;68.02;57.94;88.41;;
74260;Laerm;62630;55.874;37.516;2023-02-15T05:00:03;75.07;55.70;96.84;;
74260;Laerm;62630;55.874;37.516;2023-02-15T05:02:29;66.79;54.34;87.47;;
74260;Laerm;62630;55.874;37.516;2023-02-15T05:04:55;62.75;56.13;82.26;;
74260;Laerm;62630;55.874;37.516;2023-02-15T05:07:21;64.00;57.30;86.84;;
74260;Laerm;62630;55.874;37.516;2023-02-15T05:09:47;66.26;57.41;84.05;;
74260;Laerm;62630;55.874;37.516;2023-02-15T05:12:13;62.94;55.63;78.13;;
74260;Laerm;62630;55.874;37.516;2023-02-15T05:14:38;61.60;57.15;73.67;;
74260;Laerm;62630;55.874;37.516;2023-02-15T05:17:04;61.80;56.47;81.73;;
74260;Laerm;62630;55.874;37.516;2023-02-15T05:19:30;60.77;54.52;72.49;;
74260;Laerm;62630;55.874;37.516;2023-02-15T05:21:56;60.84;55.76;77.08;;
74260;Laerm;62630;55.874;37.516;2023-02-15T05:24:21;63.78;56.19;78.10;;
74260;Laerm;62630;55.874;37.516;2023-02-15T05:27:12;62.62;57.12;71.10;;
74260;Laerm;62630;55.874;37.516;2023-02-15T05:29:57;65.89;56.89;83.67;;
74260;Laerm;62630;55.874;37.516;2023-02-15T05:32:22;62.52;57.35;73.09;;
74260;Laerm;62630;55.874;37.516;2023-02-15T05:34:48;61.27;56.34;70.60;;
74260;Laerm;62630;55.874;37.516;2023-02-15T05:37:16;60.39;54.12;68.54;;
74260;Laerm;62630;55.874;37.516;2023-02-15T05:39:41;63.68;55.05;77.79;;
74260;Laerm;62630;55.874;37.516;2023-02-15T05:42:07;61.59;55.16;72.98;;
74260;Laerm;62630;55.874;37.516;2023-02-15T05:44:35;61.29;53.73;76.85;;
74260;Laerm;62630;55.874;37.516;2023-02-15T05:47:01;62.29;53.53;70.19;;
74260;Laerm;62630;55.874;37.516;2023-02-15T05:49:28;63.90;55.50;75.57;;
74260;Laerm;62630;55.874;37.516;2023-02-15T05:51:54;62.62;53.27;75.24;;
74260;Laerm;62630;55.874;37.516;2023-02-15T05:54:19;60.66;53.90;78.34;;
74260;Laerm;62630;55.874;37.516;2023-02-15T05:56:45;62.38;53.49;72.55;;
74260;Laerm;62630;55.874;37.516;2023-02-15T05:59:10;62.92;57.39;74.80;;
74260;Laerm;62630;55.874;37.516;2023-02-15T06:01:36;60.74;53.59;71.31;;
74260;Laerm;62630;55.874;37.516;2023-02-15T06:04:02;62.14;52.05;73.34;;
74260;Laerm;62630;55.874;37.516;2023-02-15T06:06:28;64.92;54.90;78.51;;
74260;Laerm;62630;55.874;37.516;2023-02-15T06:08:54;63.89;55.58;76.65;;
74260;Laerm;62630;55.874;37.516;2023-02-15T06:11:20;61.24;53.60;83.10;;
74260;Laerm;62630;55.874;37.516;2023-02-15T06:13:45;61.66;54.68;71.82;;
74260;Laerm;62630;55.874;37.516;2023-02-15T06:16:12;66.52;55.78;79.86;;
74260;Laerm;62630;55.874;37.516;2023-02-15T06:18:41;62.41;53.81;78.62;;
74260;Laerm;62630;55.874;37.516;2023-02-15T06:21:08;59.95;52.44;68.70;;
74260;Laerm;62630;55.874;37.516;2023-02-15T06:23:34;63.16;55.45;71.71;;
74260;Laerm;62630;55.874;37.516;2023-02-15T06:25:59;61.61;53.46;69.41;;
74260;Laerm;62630;55.874;37.516;2023-02-15T06:28:25;63.19;55.36;72.17;;
74260;Laerm;62630;55.874;37.516;2023-02-15T06:30:51;62.71;54.32;76.42;;
74260;Laerm;62630;55.874;37.516;2023-02-15T06:33:18;60.57;52.47;72.47;;
74260;Laerm;62630;55.874;37.516;2023-02-15T06:35:44;62.53;54.98;72.32;;
74260;Laerm;62630;55.874;37.516;2023-02-15T06:38:10;66.46;53.32;81.24;;
74260;Laerm;62630;55.874;37.516;2023-02-15T06:40:36;62.00;52.70;72.26;;
74260;Laerm;62630;55.874;37.516;2023-02-15T06:43:02;64.32;52.80;77.48;;
74260;Laerm;62630;55.874;37.516;2023-02-15T06:45:28;63.58;53.17;82.80;;
74260;Laerm;62630;55.874;37.516;2023-02-15T06:47:53;63.30;54.82;79.46;;
74260;Laerm;62630;55.874;37.516;2023-02-15T06:50:20;64.95;58.09;74.00;;
74260;Laerm;62630;55.874;37.516;2023-02-15T06:52:48;66.43;58.86;78.98;;
74260;Laerm;62630;55.874;37.516;2023-02-15T06:55:17;61.94;55.41;72.96;;
74260;Laerm;62630;55.874;37.516;2023-02-15T06:57:42;66.46;57.80;82.70;;
74260;Laerm;62630;55.874;37.516;2023-02-15T07:00:08;64.18;55.56;80.91;;
74260;Laerm;62630;55.874;37.516;2023-02-15T07:02:34;62.74;54.71;78.17;;
74260;Laerm;62630;55.874;37.516;2023-02-15T07:05:01;63.14;52.95;75.60;;
74260;Laerm;62630;55.874;37.516;2023-02-15T07:07:26;67.12;54.86;88.46;;
74260;Laerm;62630;55.874;37.516;2023-02-15T07:09:52;64.46;53.57;79.57;;
74260;Laerm;62630;55.874;37.516;2023-02-15T07:12:17;63.15;52.23;73.95;;
74260;Laerm;62630;55.874;37.516;2023-02-15T07:15:02;64.27;53.99;77.21;;
74260;Laerm;62630;55.874;37.516;2023-02-15T07:17:37;67.97;55.18;89.38;;
74260;Laerm;62630;55.874;37.516;2023-02-15T07:20:11;65.29;55.12;80.30;;
74260;Laerm;62630;55.874;37.516;2023-02-15T07:22:36;69.14;55.35;84.13;;
74260;Laerm;62630;55.874;37.516;2023-02-15T07:25:07;64.10;55.81;78.89;;
74260;Laerm;62630;55.874;37.516;2023-02-15T07:27:33;62.72;54.22;76.12;;
74260;Laerm;62630;55.874;37.516;2023-02-15T07:30:00;66.94;53.17;89.82;;
74260;Laerm;62630;55.874;37.516;2023-02-15T07:32:32;64.51;52.48;77.35;;
74260;Laerm;62630;55.874;37.516;2023-02-15T07:34:58;64.00;55.06;77.20;;
74260;Laerm;62630;55.874;37.516;2023-02-15T07:37:24;64.37;51.98;75.67;;
74260;Laerm;62630;55.874;37.516;2023-02-15T07:39:50;62.44;51.27;70.94;;
74260;Laerm;62630;55.874;37.516;2023-02-15T07:42:15;63.48;52.39;83.54;;
74260;Laerm;62630;55.874;37.516;2023-02-15T07:44:41;63.58;53.92;76.36;;
74260;Laerm;62630;55.874;37.516;2023-02-15T07:47:06;64.90;57.13;84.96;;
74260;Laerm;62630;55.874;37.516;2023-02-15T07:49:33;64.18;58.58;75.45;;
74260;Laerm;62630;55.874;37.516;2023-02-15T07:52:03;63.17;55.11;72.76;;
74260;Laerm;62630;55.874;37.516;2023-02-15T07:54:29;63.13;55.74;74.95;;
74260;Laerm;62630;55.874;37.516;2023-02-15T07:56:58;62.00;55.89;69.13;;
74260;Laerm;62630;55.874;37.516;2023-02-15T07:59:23;61.34;52.55;72.17;;
74260;Laerm;62630;55.874;37.516;2023-02-15T08:01:49;63.35;52.29;72.40;;
74260;Laerm;62630;55.874;37.516;2023-02-15T08:04:15;63.50;53.39;77.32;;
74260;Laerm;62630;55.874;37.516;2023-02-15T08:06:43;66.03;53.30;82.45;;
74260;Laerm;62630;55.874;37.516;2023-02-15T08:09:09;63.05;54.23;73.29;;
74260;Laerm;62630;55.874;37.516;2023-02-15T08:11:38;63.86;55.03;80.60;;
74260;Laerm;62630;55.874;37.516;2023-02-15T08:19:25;64.82;54.78;76.82;;
74260;Laerm;62630;55.874;37.516;2023-02-15T08:24:27;63.49;54.50;79.56;;
74260;Laerm;62630;55.874;37.516;2023-02-15T08:27:38;63.31;53.88;80.40;;
74260;Laerm;62630;55.874;37.516;2023-02-15T08:30:10;63.85;55.05;76.32;;
74260;Laerm;62630;55.874;37.516;2023-02-15T08:32:39;64.38;54.64;74.03;;
74260;Laerm;62630;55.874;37.516;2023-02-15T08:35:06;63.68;52.42;72.98;;
74260;Laerm;62630;55.874;37.516;2023-02-15T08:37:32;63.29;55.52;78.55;;
74260;Laerm;62630;55.874;37.516;2023-02-15T08:39:59;65.45;54.48;77.59;;
74260;Laerm;62630;55.874;37.516;2023-02-15T08:42:25;65.66;56.09;79.38;;
74260;Laerm;62630;55.874;37.516;2023-02-15T08:44:50;62.40;54.26;74.16;;
74260;Laerm;62630;55.874;37.516;2023-02-15T08:47:16;65.14;56.70;73.56;;
74260;Laerm;62630;55.874;37.516;2023-02-15T08:49:42;65.77;54.01;88.32;;
74260;Laerm;62630;55.874;37.516;2023-02-15T08:52:10;66.83;52.49;78.65;;
74260;Laerm;62630;55.874;37.516;2023-02-15T08:54:37;64.91;55.81;73.68;;
74260;Laerm;62630;55.874;37.516;2023-02-15T08:57:06;64.22;53.37;81.67;;
74260;Laerm;62630;55.874;37.516;2023-02-15T08:59:32;63.27;54.32;70.55;;
74260;Laerm;62630;55.874;37.516;2023-02-15T09:01:57;63.51;54.03;76.67;;
74260;Laerm;62630;55.874;37.516;2023-02-15T09:04:25;67.08;56.29;85.70;;
74260;Laerm;62630;55.874;37.516;2023-02-15T09:06:51;67.95;54.81;88.77;;
74260;Laerm;62630;55.874;37.516;2023-02-15T09:09:19;69.36;56.36;84.42;;
74260;Laerm;62630;55.874;37.516;2023-02-15T09:11:47;65.21;58.06;78.12;;
74260;Laerm;62630;55.874;37.516;2023-02-15T09:14:16;68.64;57.69;85.82;;
74260;Laerm;62630;55.874;37.516;2023-02-15T09:16:44;63.67;52.76;80.30;;
74260;Laerm;62630;55.874;37.516;2023-02-15T09:19:19;63.79;53.17;73.36;;
74260;Laerm;62630;55.874;37.516;2023-02-15T09:21:45;67.27;51.78;91.98;;
74260;Laerm;62630;55.874;37.516;2023-02-15T09:24:13;65.14;52.90;79.07;;
74260;Laerm;62630;55.874;37.516;2023-02-15T09:26:42;63.86;52.92;75.60;;
74260;Laerm;62630;55.874;37.516;2023-02-15T09:29:09;64.55;54.95;73.67;;
74260;Laerm;62630;55.874;37.516;2023-02-15T09:31:41;63.69;54.04;76.21;;
74260;Laerm;62630;55.874;37.516;2023-02-15T09:34:09;63.32;51.63;74.34;;
74260;Laerm;62630;55.874;37.516;2023-02-15T09:36:37;71.25;54.87;83.03;;
74260;Laerm;62630;55.874;37.516;2023-02-15T09:45:03;67.74;56.64;84.27;;
74260;Laerm;62630;55.874;37.516;2023-02-15T09:56:58;67.75;56.24;83.93;;
74260;Laerm;62630;55.874;37.516;2023-02-15T10:17:01;67.82;57.28;81.59;;
74260;Laerm;62630;55.874;37.516;2023-02-15T10:19:39;64.85;54.38;71.92;;
74260;Laerm;62630;55.874;37.516;2023-02-15T10:22:42;65.13;54.85;75.22;;
74260;Laerm;62630;55.874;37.516;2023-02-15T10:28:10;64.68;56.04;81.42;;
74260;Laerm;62630;55.874;37.516;2023-02-15T10:33:12;64.66;55.72;75.42;;
74260;Laerm;62630;55.874;37.516;2023-02-15T10:36:51;65.37;55.31;80.06;;
74260;Laerm;62630;55.874;37.516;2023-02-15T10:38:42;65.36;57.52;78.20;;
74260;Laerm;62630;55.874;37.516;2023-02-15T10:41:42;64.24;55.98;77.33;;
74260;Laerm;62630;55.874;37.516;2023-02-15T10:44:41;63.53;54.07;82.64;;
74260;Laerm;62630;55.874;37.516;2023-02-15T11:01:35;64.66;52.89;84.03;;
74260;Laerm;62630;55.874;37.516;2023-02-15T11:06:54;62.49;55.63;70.53;;
74260;Laerm;62630;55.874;37.516;2023-02-15T11:09:24;63.36;57.24;72.38;;
74260;Laerm;62630;55.874;37.516;2023-02-15T11:11:53;61.46;54.59;72.76;;
74260;Laerm;62630;55.874;37.516;2023-02-15T11:14:37;64.73;55.34;83.58;;
74260;Laerm;62630;55.874;37.516;2023-02-15T11:17:18;63.39;52.48;72.61;;
74260;Laerm;62630;55.874;37.516;2023-02-15T11:22:23;66.28;54.89;79.96;;
74260;Laerm;62630;55.874;37.516;2023-02-15T11:24:50;67.99;56.35;80.63;;
74260;Laerm;62630;55.874;37.516;2023-02-15T11:27:28;64.82;54.83;83.25;;
74260;Laerm;62630;55.874;37.516;2023-02-15T11:30:14;63.51;54.03;74.17;;
74260;Laerm;62630;55.874;37.516;2023-02-15T11:32:47;64.04;53.48;75.08;;
74260;Laerm;62630;55.874;37.516;2023-02-15T11:35:31;64.60;54.57;79.39;;
74260;Laerm;62630;55.874;37.516;2023-02-15T11:38:06;74.42;55.09;99.84;;
74260;Laerm;62630;55.874;37.516;2023-02-15T11:46:13;67.74;53.56;87.59;;
74260;Laerm;62630;55.874;37.516;2023-02-15T11:51:45;69.82;57.12;80.62;;
74260;Laerm;62630;55.874;37.516;2023-02-15T11:54:17;65.46;58.32;75.90;;
74260;Laerm;62630;55.874;37.516;2023-02-15T11:56:46;65.06;53.13;72.75;;
74260;Laerm;62630;55.874;37.516;2023-02-15T11:59:27;76.61;53.90;94.38;;
74260;Laerm;62630;55.874;37.516;2023-02-15T12:01:55;65.48;55.31;83.11;;
74260;Laerm;62630;55.874;37.516;2023-02-15T12:04:22;62.73;51.72;73.44;;
74260;Laerm;62630;55.874;37.516;2023-02-15T12:06:51;67.81;57.50;77.06;;
74260;Laerm;62630;55.874;37.516;2023-02-15T12:10:20;66.49;54.14;78.93;;
74260;Laerm;62630;55.874;37.516;2023-02-15T12:12:39;64.88;56.00;74.04;;
74260;Laerm;62630;55.874;37.516;2023-02-15T12:15:10;64.33;53.81;73.07;;
74260;Laerm;62630;55.874;37.516;2023-02-15T12:17:50;66.73;53.66;80.46;;
74260;Laerm;62630;55.874;37.516;2023-02-15T12:22:53;64.13;56.43;80.59;;
74260;Laerm;62630;55.874;37.516;2023-02-15T12:25:33;63.37;53.60;74.12;;
74260;Laerm;62630;55.874;37.516;2023-02-15T12:28:05;67.24;56.23;80.34;;
74260;Laerm;62630;55.874;37.516;2023-02-15T12:30:42;68.60;56.36;83.18;;
74260;Laerm;62630;55.874;37.516;2023-02-15T12:33:24;64.18;52.78;77.31;;
74260;Laerm;62630;55.874;37.516;2023-02-15T12:36:40;64.14;55.50;74.40;;
74260;Laerm;62630;55.874;37.516;2023-02-15T12:39:26;62.97;54.03;72.05;;
74260;Laerm;62630;55.874;37.516;2023-02-15T12:44:22;62.97;55.94;73.25;;
74260;Laerm;62630;55.874;37.516;2023-02-15T12:50:45;64.68;53.19;78.85;;
74260;Laerm;62630;55.874;37.516;2023-02-15T12:53:32;66.61;52.96;83.72;;
74260;Laerm;62630;55.874;37.516;2023-02-15T12:56:06;81.42;52.73;102.09;;
74260;Laerm;62630;55.874;37.516;2023-02-15T12:58:33;66.58;52.07;83.78;;
74260;Laerm;62630;55.874;37.516;2023-02-15T13:03:35;69.81;56.58;84.74;;
74260;Laerm;62630;55.874;37.516;2023-02-15T13:06:02;64.46;53.75;79.39;;
74260;Laerm;62630;55.874;37.516;2023-02-15T13:08:54;67.42;53.80;82.81;;
74260;Laerm;62630;55.874;37.516;2023-02-15T13:11:29;65.78;54.27;76.11;;
74260;Laerm;62630;55.874;37.516;2023-02-15T13:14:02;68.08;55.50;80.25;;
74260;Laerm;62630;55.874;37.516;2023-02-15T13:16:36;63.41;53.00;74.49;;
74260;Laerm;62630;55.874;37.516;2023-02-15T13:19:12;66.09;56.34;86.39;;
74260;Laerm;62630;55.874;37.516;2023-02-15T13:21:45;63.83;56.26;71.34;;
74260;Laerm;62630;55.874;37.516;2023-02-15T13:24:27;64.57;55.51;77.01;;
74260;Laerm;62630;55.874;37.516;2023-02-15T13:26:58;66.50;55.16;85.37;;
74260;Laerm;62630;55.874;37.516;2023-02-15T13:29:36;65.62;54.33;79.57;;
74260;Laerm;62630;55.874;37.516;2023-02-15T13:32:22;64.48;55.87;83.07;;
74260;Laerm;62630;55.874;37.516;2023-02-15T13:35:00;62.50;54.21;78.27;;
74260;Laerm;62630;55.874;37.516;2023-02-15T13:38:16;65.55;52.03;84.80;;
74260;Laerm;62630;55.874;37.516;2023-02-15T13:49:04;68.43;54.23;85.23;;
74260;Laerm;62630;55.874;37.516;2023-02-15T13:52:18;63.36;53.91;81.34;;
74260;Laerm;62630;55.874;37.516;2023-02-15T14:00:21;65.20;56.19;76.07;;
74260;Laerm;62630;55.874;37.516;2023-02-15T14:05:56;64.35;56.01;74.54;;
74260;Laerm;62630;55.874;37.516;2023-02-15T14:12:07;63.20;52.38;81.86;;
74260;Laerm;62630;55.874;37.516;2023-02-15T14:17:04;63.14;54.32;76.72;;
74260;Laerm;62630;55.874;37.516;2023-02-15T14:19:49;70.57;54.93;84.81;;
74260;Laerm;62630;55.874;37.516;2023-02-15T14:22:43;64.17;51.86;78.12;;
74260;Laerm;62630;55.874;37.516;2023-02-15T14:25:28;62.49;53.40;74.13;;
74260;Laerm;62630;55.874;37.516;2023-02-15T14:28:08;65.51;53.86;89.26;;
74260;Laerm;62630;55.874;37.516;2023-02-15T14:30:41;63.69;55.32;74.46;;
74260;Laerm;62630;55.874;37.516;2023-02-15T14:35:56;62.29;54.00;72.77;;
74260;Laerm;62630;55.874;37.516;2023-02-15T14:38:51;63.59;50.25;81.56;;
74260;Laerm;62630;55.874;37.516;2023-02-15T14:41:44;62.86;52.85;73.81;;
74260;Laerm;62630;55.874;37.516;2023-02-15T14:44:27;62.38;52.28;71.28;;
74260;Laerm;62630;55.874;37.516;2023-02-15T14:47:05;65.52;52.88;83.53;;
74260;Laerm;62630;55.874;37.516;2023-02-15T14:49:39;63.09;52.00;73.85;;
74260;Laerm;62630;55.874;37.516;2023-02-15T14:52:11;63.99;55.54;87.12;;
74260;Laerm;62630;55.874;37.516;2023-02-15T15:09:42;63.55;53.90;73.01;;
74260;Laerm;62630;55.874;37.516;2023-02-15T15:12:36;69.26;53.67;87.49;;
74260;Laerm;62630;55.874;37.516;2023-02-15T15:15:03;64.10;56.11;75.63;;
74260;Laerm;62630;55.874;37.516;2023-02-15T15:20:37;63.46;55.54;80.76;;
74260;Laerm;62630;55.874;37.516;2023-02-15T15:26:23;62.61;54.89;76.06;;
74260;Laerm;62630;55.874;37.516;2023-02-15T15:50:15;63.29;54.84;78.07;;
74260;Laerm;62630;55.874;37.516;2023-02-15T15:52:46;63.44;55.52;84.00;;
74260;Laerm;62630;55.874;37.516;2023-02-15T15:55:19;63.05;57.98;74.06;;
74260;Laerm;62630;55.874;37.516;2023-02-15T15:57:49;64.36;54.78;78.76;;
74260;Laerm;62630;55.874;37.516;2023-02-15T16:00:47;67.89;54.28;102.57;;
74260;Laerm;62630;55.874;37.516;2023-02-15T16:03:22;60.40;53.76;69.45;;
74260;Laerm;62630;55.874;37.516;2023-02-15T16:05:48;61.93;54.77;74.45;;
74260;Laerm;62630;55.874;37.516;2023-02-15T16:10:55;69.42;56.39;80.42;;
74260;Laerm;62630;55.874;37.516;2023-02-15T16:13:21;61.88;55.95;79.67;;
74260;Laerm;62630;55.874;37.516;2023-02-15T16:15:47;67.23;55.87;86.85;;
74260;Laerm;62630;55.874;37.516;2023-02-15T16:18:19;62.03;54.71;74.11;;
74260;Laerm;62630;55.874;37.516;2023-02-15T16:21:01;63.93;53.67;84.80;;
74260;Laerm;62630;55.874;37.516;2023-02-15T16:29:14;62.43;54.44;72.27;;
74260;Laerm;62630;55.874;37.516;2023-02-15T16:31:39;61.77;55.25;71.49;;
74260;Laerm;62630;55.874;37.516;2023-02-15T16:34:14;62.82;54.12;73.63;;
74260;Laerm;62630;55.874;37.516;2023-02-15T16:36:42;63.70;52.45;79.84;;
74260;Laerm;62630;55.874;37.516;2023-02-15T16:39:23;66.52;56.25;76.70;;
74260;Laerm;62630;55.874;37.516;2023-02-15T16:41:49;64.62;53.17;79.83;;
74260;Laerm;62630;55.874;37.516;2023-02-15T16:44:30;62.00;53.40;78.96;;
74260;Laerm;62630;55.874;37.516;2023-02-15T16:46:58;61.76;50.95;71.14;;
74260;Laerm;62630;55.874;37.516;2023-02-15T16:49:32;61.63;50.69;68.51;;
74260;Laerm;62630;55.874;37.516;2023-02-15T16:52:01;63.64;52.54;73.64;;
74260;Laerm;62630;55.874;37.516;2023-02-15T16:54:28;61.45;52.80;72.29;;
74260;Laerm;62630;55.874;37.516;2023-02-15T16:56:55;62.52;54.33;70.94;;
74260;Laerm;62630;55.874;37.516;2023-02-15T16:59:39;64.42;53.50;86.76;;
74260;Laerm;62630;55.874;37.516;2023-02-15T17:02:21;63.77;52.50;74.64;;
74260;Laerm;62630;55.874;37.516;2023-02-15T17:07:28;63.60;53.74;75.28;;
74260;Laerm;62630;55.874;37.516;2023-02-15T17:09:56;63.77;53.20;72.63;;
74260;Laerm;62630;55.874;37.516;2023-02-15T17:12:47;67.86;53.54;84.64;;